createdAt,value
2018-04-18T00:00:04.157Z,13.55
2018-04-18T00:02:32.704Z,13.58
2018-04-18T00:05:01.185Z,13.64
2018-04-18T00:07:29.692Z,13.52
2018-04-18T00:09:58.209Z,13.64
2018-04-18T00:12:26.741Z,13.53
2018-04-18T00:14:55.241Z,13.67
2018-04-18T00:17:23.709Z,13.63
2018-04-18T00:19:52.225Z,13.60
2018-04-18T00:24:58.874Z,13.58
2018-04-18T00:27:27.377Z,13.54
2018-04-18T00:29:55.896Z,13.51
2018-04-18T00:32:24.358Z,13.47
2018-04-18T00:34:52.896Z,13.44
2018-04-18T00:37:21.500Z,13.45
2018-04-18T00:39:49.984Z,13.40
2018-04-18T00:42:18.505Z,13.32
2018-04-18T00:44:47.029Z,13.32
2018-04-18T00:47:15.530Z,13.32
2018-04-18T00:49:43.997Z,13.30
2018-04-18T00:52:12.516Z,13.23
2018-04-18T00:54:40.996Z,13.10
2018-04-18T00:57:09.513Z,13.13
2018-04-18T00:59:38.049Z,13.15
2018-04-18T01:02:06.569Z,13.05
2018-04-18T01:04:35.105Z,13.02
2018-04-18T01:07:03.636Z,13.06
2018-04-18T01:09:32.164Z,12.99
2018-04-18T01:12:00.662Z,12.97
2018-04-18T01:14:29.234Z,12.94
2018-04-18T01:16:57.709Z,12.92
2018-04-18T01:19:26.245Z,12.76
2018-04-18T01:21:54.789Z,12.78
2018-04-18T01:24:23.300Z,12.74
2018-04-18T01:26:51.817Z,12.74
2018-04-18T01:29:20.334Z,12.69
2018-04-18T01:31:48.814Z,12.82
2018-04-18T01:34:17.301Z,12.83
2018-04-18T01:36:45.785Z,12.87
2018-04-18T01:39:14.308Z,12.88
2018-04-18T01:41:42.816Z,12.90
2018-04-18T01:44:11.330Z,12.90
2018-04-18T01:46:39.849Z,12.82
2018-04-18T01:49:20.137Z,12.74
2018-04-18T01:51:48.640Z,12.66
2018-04-18T01:54:17.186Z,12.61
2018-04-18T01:56:45.697Z,12.65
2018-04-18T01:59:14.209Z,12.62
2018-04-18T02:01:42.709Z,12.56
2018-04-18T02:04:11.221Z,12.40
2018-04-18T02:06:39.727Z,12.34
2018-04-18T02:09:08.257Z,12.28
2018-04-18T02:11:36.792Z,12.34
2018-04-18T02:14:05.342Z,12.27
2018-04-18T02:16:33.820Z,12.28
2018-04-18T02:19:02.336Z,12.33
2018-04-18T02:21:30.871Z,12.35
2018-04-18T02:23:59.332Z,12.34
2018-04-18T02:26:27.827Z,12.34
2018-04-18T02:28:56.369Z,12.36
2018-04-18T02:31:24.869Z,12.28
2018-04-18T02:33:53.389Z,12.36
2018-04-18T02:36:21.972Z,12.30
2018-04-18T02:38:50.476Z,12.25
2018-04-18T02:41:18.952Z,12.28
2018-04-18T02:43:47.473Z,12.33
2018-04-18T02:46:16.002Z,12.34
2018-04-18T02:48:44.497Z,12.34
2018-04-18T02:51:13.000Z,12.34
2018-04-18T02:53:41.481Z,12.34
2018-04-18T02:56:09.995Z,12.29
2018-04-18T02:58:38.477Z,12.31
2018-04-18T03:01:06.985Z,12.37
2018-04-18T03:03:35.485Z,12.32
2018-04-18T03:06:04.021Z,12.30
2018-04-18T03:08:32.917Z,12.30
2018-04-18T03:11:01.438Z,12.29
2018-04-18T03:13:29.949Z,12.31
2018-04-18T03:15:58.461Z,12.21
2018-04-18T03:18:26.937Z,12.29
2018-04-18T03:20:55.465Z,12.27
2018-04-18T03:23:23.950Z,12.26
2018-04-18T03:25:52.460Z,12.14
2018-04-18T03:28:20.928Z,12.24
2018-04-18T03:30:49.449Z,12.19
2018-04-18T03:33:17.928Z,12.19
2018-04-18T03:35:46.461Z,12.16
2018-04-18T03:38:14.945Z,12.18
2018-04-18T03:40:43.455Z,12.18
2018-04-18T03:43:11.983Z,12.15
2018-04-18T03:45:40.449Z,12.03
2018-04-18T03:48:08.957Z,12.01
2018-04-18T03:50:37.464Z,12.16
2018-04-18T03:53:05.979Z,12.15
2018-04-18T03:55:34.464Z,12.04
2018-04-18T03:58:02.986Z,12.04
2018-04-18T04:00:31.450Z,12.00
2018-04-18T04:02:59.974Z,12.07
2018-04-18T04:05:28.455Z,12.07
2018-04-18T04:07:56.927Z,12.05
2018-04-18T04:10:25.475Z,12.18
2018-04-18T04:12:54.005Z,12.31
2018-04-18T04:15:22.473Z,12.39
2018-04-18T04:18:02.682Z,12.54
2018-04-18T04:20:42.701Z,12.60
2018-04-18T04:23:22.749Z,12.67
2018-04-18T04:25:51.245Z,12.82
2018-04-18T04:28:19.735Z,12.96
2018-04-18T04:30:48.269Z,13.12
2018-04-18T04:33:16.751Z,13.30
2018-04-18T04:35:45.260Z,13.49
2018-04-18T04:38:13.736Z,13.66
2018-04-18T04:40:42.280Z,13.83
2018-04-18T04:43:10.757Z,13.99
2018-04-18T04:45:39.239Z,14.13
2018-04-18T04:48:07.760Z,14.38
2018-04-18T04:50:36.237Z,14.53
2018-04-18T04:53:04.749Z,14.69
2018-04-18T04:55:33.240Z,14.77
2018-04-18T04:58:01.814Z,15.03
2018-04-18T05:00:30.309Z,15.19
2018-04-18T05:02:58.840Z,15.45
2018-04-18T05:05:27.317Z,15.54
2018-04-18T05:07:55.832Z,15.78
2018-04-18T05:10:24.337Z,15.96
2018-04-18T05:12:52.835Z,16.12
2018-04-18T05:15:21.385Z,16.12
2018-04-18T05:17:49.877Z,16.13
2018-04-18T05:20:18.368Z,16.48
2018-04-18T05:22:46.841Z,16.53
2018-04-18T05:25:15.309Z,16.56
2018-04-18T05:27:43.824Z,16.68
2018-04-18T05:30:12.313Z,16.61
2018-04-18T05:32:40.825Z,16.83
2018-04-18T05:35:09.301Z,16.68
2018-04-18T05:37:37.813Z,16.83
2018-04-18T05:40:06.342Z,17.11
2018-04-18T05:42:34.861Z,17.36
2018-04-18T05:45:03.453Z,17.62
2018-04-18T05:47:31.903Z,17.85
2018-04-18T05:50:00.422Z,17.99
2018-04-18T05:52:28.954Z,18.19
2018-04-18T05:54:57.424Z,18.41
2018-04-18T05:57:25.932Z,18.30
2018-04-18T05:59:54.614Z,18.26
2018-04-18T06:02:23.149Z,18.39
2018-04-18T06:04:51.692Z,18.72
2018-04-18T06:07:20.181Z,18.89
2018-04-18T06:09:48.668Z,18.85
2018-04-18T06:12:17.208Z,19.03
2018-04-18T06:14:45.752Z,19.21
2018-04-18T06:17:14.247Z,19.31
2018-04-18T06:19:42.777Z,19.19
2018-04-18T06:22:11.277Z,19.16
2018-04-18T06:24:39.793Z,19.39
2018-04-18T06:27:08.314Z,19.57
2018-04-18T06:29:36.817Z,19.89
2018-04-18T06:32:05.328Z,19.88
2018-04-18T06:34:33.889Z,20.14
2018-04-18T06:37:02.411Z,20.12
2018-04-18T06:39:30.912Z,20.48
2018-04-18T06:41:59.390Z,20.39
2018-04-18T06:44:27.892Z,20.42
2018-04-18T06:46:56.361Z,20.38
2018-04-18T06:49:24.860Z,20.68
2018-04-18T06:51:53.323Z,20.91
2018-04-18T06:54:21.841Z,21.22
2018-04-18T06:56:50.325Z,21.06
2018-04-18T06:59:18.815Z,21.20
2018-04-18T07:01:47.333Z,21.28
2018-04-18T07:04:15.862Z,21.37
2018-04-18T07:06:44.332Z,21.68
2018-04-18T07:09:12.801Z,21.79
2018-04-18T07:11:41.316Z,21.71
2018-04-18T07:14:09.828Z,21.82
2018-04-18T07:16:38.348Z,22.02
2018-04-18T07:19:06.805Z,22.20
2018-04-18T07:21:35.317Z,22.28
2018-04-18T07:24:03.797Z,22.04
2018-04-18T07:26:32.352Z,22.18
2018-04-18T07:29:00.817Z,22.45
2018-04-18T07:31:29.284Z,22.50
2018-04-18T07:33:57.797Z,22.53
2018-04-18T07:36:26.261Z,22.30
2018-04-18T07:38:54.725Z,22.35
2018-04-18T07:41:23.250Z,22.63
2018-04-18T07:43:51.872Z,22.52
2018-04-18T07:46:20.351Z,22.58
2018-04-18T07:48:48.793Z,22.69
2018-04-18T07:51:17.336Z,22.64
2018-04-18T07:53:45.808Z,22.71
2018-04-18T07:56:14.313Z,22.56
2018-04-18T07:58:42.780Z,22.76
2018-04-18T08:01:11.291Z,22.78
2018-04-18T08:03:39.767Z,22.79
2018-04-18T08:06:08.274Z,22.78
2018-04-18T08:08:36.792Z,22.71
2018-04-18T08:11:05.321Z,22.78
2018-04-18T08:13:33.788Z,22.96
2018-04-18T08:16:02.300Z,22.60
2018-04-18T08:18:30.765Z,22.89
2018-04-18T08:20:59.332Z,22.69
2018-04-18T08:23:27.841Z,22.75
2018-04-18T08:25:56.316Z,23.08
2018-04-18T08:28:24.828Z,23.16
2018-04-18T08:30:53.333Z,23.35
2018-04-18T08:33:21.875Z,23.08
2018-04-18T08:35:50.377Z,23.20
2018-04-18T08:38:18.896Z,23.39
2018-04-18T08:40:47.407Z,23.48
2018-04-18T08:43:15.888Z,23.47
2018-04-18T08:45:44.344Z,23.67
2018-04-18T08:48:12.850Z,23.85
2018-04-18T08:50:41.361Z,23.97
2018-04-18T08:53:10.087Z,24.04
2018-04-18T08:55:38.635Z,24.15
2018-04-18T08:58:07.100Z,23.94
2018-04-18T09:00:35.592Z,24.09
2018-04-18T09:03:04.102Z,24.24
2018-04-18T09:05:32.595Z,24.27
2018-04-18T09:08:01.076Z,24.47
2018-04-18T09:10:29.612Z,24.61
2018-04-18T09:12:58.127Z,24.66
2018-04-18T09:15:26.583Z,24.63
2018-04-18T09:17:55.080Z,24.73
2018-04-18T09:20:23.558Z,24.73
2018-04-18T09:22:52.057Z,24.79
2018-04-18T09:25:20.524Z,24.90
2018-04-18T09:27:49.014Z,24.55
2018-04-18T09:30:17.512Z,24.64
2018-04-18T09:32:46.088Z,24.75
2018-04-18T09:35:14.548Z,24.79
2018-04-18T09:37:43.053Z,25.04
2018-04-18T09:40:11.579Z,25.08
2018-04-18T09:42:40.087Z,25.02
2018-04-18T09:45:08.594Z,24.84
2018-04-18T09:47:37.060Z,24.99
2018-04-18T09:50:05.610Z,25.25
2018-04-18T09:52:34.139Z,25.16
2018-04-18T09:55:02.665Z,25.28
2018-04-18T09:57:31.137Z,25.12
2018-04-18T09:59:59.659Z,25.31
2018-04-18T10:02:29.936Z,25.43
2018-04-18T10:05:03.803Z,25.44
2018-04-18T10:07:32.277Z,25.47
2018-04-18T10:10:01.397Z,25.60
2018-04-18T10:12:29.857Z,25.45
2018-04-18T10:14:58.356Z,25.45
2018-04-18T10:17:26.868Z,25.57
2018-04-18T10:19:55.421Z,25.74
2018-04-18T10:22:23.927Z,25.82
2018-04-18T10:24:52.414Z,25.85
2018-04-18T10:27:20.931Z,25.88
2018-04-18T10:29:49.443Z,25.76
2018-04-18T10:32:17.885Z,25.72
2018-04-18T10:34:46.351Z,25.82
2018-04-18T10:37:14.883Z,25.81
2018-04-18T10:39:43.403Z,25.63
2018-04-18T10:42:11.957Z,25.73
2018-04-18T10:44:40.476Z,25.91
2018-04-18T10:47:08.973Z,25.90
2018-04-18T10:49:37.494Z,25.94
2018-04-18T10:52:06.025Z,26.03
2018-04-18T10:54:34.610Z,25.94
2018-04-18T10:57:03.084Z,26.15
2018-04-18T10:59:31.605Z,26.10
2018-04-18T11:02:00.072Z,25.79
2018-04-18T11:04:28.550Z,25.62
2018-04-18T11:06:57.077Z,25.76
2018-04-18T11:09:25.645Z,25.76
2018-04-18T11:11:54.143Z,25.93
2018-04-18T11:14:22.653Z,25.98
2018-04-18T11:16:51.207Z,25.96
2018-04-18T11:19:19.665Z,26.13
2018-04-18T11:21:48.173Z,26.23
2018-04-18T11:24:16.647Z,26.10
2018-04-18T11:26:45.157Z,26.07
2018-04-18T11:29:13.659Z,26.18
2018-04-18T11:31:42.125Z,26.22
2018-04-18T11:34:10.622Z,26.07
2018-04-18T11:36:39.102Z,26.08
2018-04-18T11:39:07.637Z,25.99
2018-04-18T11:41:36.107Z,25.95
2018-04-18T11:44:04.673Z,26.10
2018-04-18T11:46:33.161Z,25.98
2018-04-18T11:49:01.659Z,25.86
2018-04-18T11:51:30.172Z,26.05
2018-04-18T11:53:58.741Z,26.10
2018-04-18T11:56:27.207Z,25.89
2018-04-18T11:58:55.721Z,25.92
2018-04-18T12:01:24.278Z,25.58
2018-04-18T12:03:52.788Z,25.76
2018-04-18T12:06:21.289Z,25.81
2018-04-18T12:08:49.781Z,25.90
2018-04-18T12:11:18.239Z,25.88
2018-04-18T12:13:46.761Z,25.93
2018-04-18T12:16:15.233Z,25.97
2018-04-18T12:18:44.057Z,25.99
2018-04-18T12:21:12.540Z,26.02
2018-04-18T12:23:41.006Z,26.02
2018-04-18T12:26:09.552Z,26.10
2018-04-18T12:28:38.008Z,26.08
2018-04-18T12:31:06.492Z,26.07
2018-04-18T12:33:35.010Z,26.14
2018-04-18T12:36:03.664Z,26.16
2018-04-18T12:38:32.198Z,26.32
2018-04-18T12:41:00.710Z,26.29
2018-04-18T12:43:29.237Z,26.29
2018-04-18T12:45:57.701Z,26.13
2018-04-18T12:48:26.215Z,26.29
2018-04-18T12:50:54.676Z,26.32
2018-04-18T12:53:23.141Z,26.39
2018-04-18T12:55:51.644Z,26.45
2018-04-18T12:58:20.152Z,26.41
2018-04-18T13:00:48.658Z,26.46
2018-04-18T13:03:17.116Z,26.35
2018-04-18T13:05:45.608Z,26.37
2018-04-18T13:08:14.096Z,26.39
2018-04-18T13:10:42.662Z,26.35
2018-04-18T13:13:11.277Z,26.44
2018-04-18T13:15:39.814Z,26.38
2018-04-18T13:18:08.318Z,26.46
2018-04-18T13:20:36.816Z,26.52
2018-04-18T13:23:05.303Z,26.40
2018-04-18T13:25:33.805Z,26.52
2018-04-18T13:28:02.308Z,26.48
2018-04-18T13:30:30.845Z,26.47
2018-04-18T13:32:59.326Z,26.48
2018-04-18T13:35:27.832Z,26.51
2018-04-18T13:37:56.300Z,26.30
2018-04-18T13:40:24.850Z,26.48
2018-04-18T13:42:53.374Z,26.51
2018-04-18T13:45:21.936Z,26.43
2018-04-18T13:47:50.416Z,26.52
2018-04-18T13:50:18.911Z,26.47
2018-04-18T13:52:47.408Z,26.50
2018-04-18T13:55:15.882Z,26.45
2018-04-18T13:57:44.397Z,26.43
2018-04-18T14:00:12.894Z,26.40
2018-04-18T14:02:41.516Z,26.40
2018-04-18T14:05:09.997Z,26.41
2018-04-18T14:07:38.502Z,26.46
2018-04-18T14:10:06.999Z,26.41
2018-04-18T14:12:35.468Z,26.38
2018-04-18T14:15:03.992Z,26.33
2018-04-18T14:17:32.507Z,26.27
2018-04-18T14:20:01.032Z,26.29
2018-04-18T14:22:29.508Z,26.23
2018-04-18T14:24:58.005Z,26.22
2018-04-18T14:27:26.556Z,26.21
2018-04-18T14:29:55.081Z,26.19
2018-04-18T14:32:23.620Z,26.16
2018-04-18T14:34:52.103Z,26.18
2018-04-18T14:37:20.594Z,26.18
2018-04-18T14:39:49.059Z,26.14
2018-04-18T14:42:17.519Z,26.10
2018-04-18T14:44:46.040Z,26.11
2018-04-18T14:47:14.526Z,26.15
2018-04-18T14:49:42.986Z,26.19
2018-04-18T14:52:11.523Z,26.13
2018-04-18T14:54:39.985Z,26.10
2018-04-18T14:57:08.485Z,26.17
2018-04-18T14:59:36.948Z,26.11
2018-04-18T15:02:05.452Z,26.05
2018-04-18T15:04:33.928Z,25.96
2018-04-18T15:07:02.418Z,25.87
2018-04-18T15:09:30.913Z,25.83
2018-04-18T15:11:59.420Z,25.78
2018-04-18T15:14:27.920Z,25.75
2018-04-18T15:16:56.420Z,25.75
2018-04-18T15:19:24.873Z,25.76
2018-04-18T15:21:53.369Z,25.61
2018-04-18T15:24:21.807Z,25.59
2018-04-18T15:26:50.308Z,25.54
2018-04-18T15:29:18.770Z,25.51
2018-04-18T15:31:47.321Z,25.40
2018-04-18T15:34:15.791Z,25.39
2018-04-18T15:36:44.289Z,25.33
2018-04-18T15:39:12.745Z,25.25
2018-04-18T15:41:41.258Z,25.17
2018-04-18T15:44:09.697Z,25.15
2018-04-18T15:46:38.194Z,25.14
2018-04-18T15:49:06.693Z,25.10
2018-04-18T15:51:35.199Z,25.07
2018-04-18T15:54:03.661Z,25.01
2018-04-18T15:56:32.189Z,25.00
2018-04-18T15:59:00.657Z,24.94
2018-04-18T16:01:29.156Z,24.94
2018-04-18T16:03:57.656Z,24.87
2018-04-18T16:06:26.152Z,24.76
2018-04-18T16:08:54.749Z,24.71
2018-04-18T16:11:23.208Z,24.64
2018-04-18T16:13:51.673Z,24.57
2018-04-18T16:16:20.195Z,24.47
2018-04-18T16:18:48.649Z,24.43
2018-04-18T16:21:17.117Z,24.30
2018-04-18T16:23:45.610Z,24.22
2018-04-18T16:26:14.082Z,24.18
2018-04-18T16:28:42.599Z,24.15
2018-04-18T16:31:11.060Z,24.11
2018-04-18T16:33:39.574Z,24.03
2018-04-18T16:36:08.029Z,23.99
2018-04-18T16:38:36.533Z,23.89
2018-04-18T16:41:05.031Z,23.83
2018-04-18T16:43:33.528Z,23.77
2018-04-18T16:46:02.093Z,23.73
2018-04-18T16:48:30.584Z,23.67
2018-04-18T16:50:59.904Z,23.57
2018-04-18T16:53:28.357Z,23.50
2018-04-18T16:55:56.874Z,23.52
2018-04-18T16:58:25.342Z,23.43
2018-04-18T17:00:53.809Z,23.47
2018-04-18T17:03:22.309Z,23.45
2018-04-18T17:05:50.772Z,23.40
2018-04-18T17:08:19.264Z,23.36
2018-04-18T17:10:47.738Z,23.26
2018-04-18T17:13:16.228Z,23.10
2018-04-18T17:15:44.725Z,22.98
2018-04-18T17:18:13.229Z,22.82
2018-04-18T17:20:41.709Z,22.60
2018-04-18T17:23:10.305Z,22.51
2018-04-18T17:25:38.811Z,22.33
2018-04-18T17:28:07.268Z,22.27
2018-04-18T17:30:35.785Z,22.09
2018-04-18T17:33:04.264Z,22.03
2018-04-18T17:35:32.735Z,21.91
2018-04-18T17:38:01.253Z,21.79
2018-04-18T17:40:29.724Z,21.76
2018-04-18T17:42:58.225Z,21.73
2018-04-18T17:45:26.688Z,21.64
2018-04-18T17:47:55.187Z,21.64
2018-04-18T17:50:23.654Z,21.54
2018-04-18T17:52:52.156Z,21.48
2018-04-18T17:55:20.669Z,21.40
2018-04-18T17:57:49.187Z,21.34
2018-04-18T18:00:17.720Z,21.31
2018-04-18T18:02:46.205Z,21.25
2018-04-18T18:05:14.695Z,21.21
2018-04-18T18:07:43.189Z,21.11
2018-04-18T18:10:11.685Z,21.02
2018-04-18T18:12:40.148Z,21.00
2018-04-18T18:15:08.624Z,21.03
2018-04-18T18:17:37.132Z,20.95
2018-04-18T18:20:05.667Z,20.94
2018-04-18T18:22:34.177Z,20.90
2018-04-18T18:25:02.727Z,20.85
2018-04-18T18:27:31.214Z,20.83
2018-04-18T18:29:59.685Z,20.76
2018-04-18T18:32:28.197Z,20.79
2018-04-18T18:34:56.701Z,20.70
2018-04-18T18:37:25.168Z,20.82
2018-04-18T18:39:53.677Z,20.83
2018-04-18T18:42:22.162Z,20.79
2018-04-18T18:44:50.645Z,20.78
2018-04-18T18:47:19.215Z,20.74
2018-04-18T18:49:47.759Z,20.73
2018-04-18T18:52:16.245Z,20.61
2018-04-18T18:54:44.708Z,20.67
2018-04-18T18:57:13.214Z,20.66
2018-04-18T18:59:41.684Z,20.66
2018-04-18T19:02:10.164Z,20.63
2018-04-18T19:04:38.664Z,20.59
2018-04-18T19:07:07.108Z,20.58
2018-04-18T19:09:35.617Z,20.55
2018-04-18T19:12:04.094Z,20.44
2018-04-18T19:14:32.590Z,20.38
2018-04-18T19:17:01.106Z,20.35
2018-04-18T19:19:29.632Z,20.34
2018-04-18T19:21:58.134Z,20.31
2018-04-18T19:24:26.611Z,20.26
2018-04-18T19:26:55.085Z,20.20
2018-04-18T19:29:23.595Z,20.13
2018-04-18T19:31:52.069Z,20.11
2018-04-18T19:34:20.543Z,20.09
2018-04-18T19:36:49.071Z,20.01
2018-04-18T19:39:17.552Z,19.90
2018-04-18T19:41:46.081Z,19.90
2018-04-18T19:44:14.540Z,19.84
2018-04-18T19:46:43.064Z,19.79
2018-04-18T19:49:11.525Z,19.73
2018-04-18T19:51:40.023Z,19.66
2018-04-18T19:54:08.476Z,19.64
2018-04-18T19:56:36.958Z,19.58
2018-04-18T19:59:05.428Z,19.47
2018-04-18T20:01:33.917Z,19.46
2018-04-18T20:04:02.380Z,19.44
2018-04-18T20:06:30.888Z,19.42
2018-04-18T20:08:59.332Z,19.40
2018-04-18T20:11:27.829Z,19.33
2018-04-18T20:13:56.296Z,19.30
2018-04-18T20:16:24.787Z,19.30
2018-04-18T20:18:53.286Z,19.27
2018-04-18T20:21:21.744Z,19.23
2018-04-18T20:23:50.245Z,19.19
2018-04-18T20:26:18.748Z,19.21
2018-04-18T20:28:47.218Z,19.18
2018-04-18T20:31:15.677Z,19.20
2018-04-18T20:33:44.184Z,19.08
2018-04-18T20:36:12.680Z,19.14
2018-04-18T20:38:41.133Z,19.11
2018-04-18T20:41:09.641Z,19.12
2018-04-18T20:43:38.191Z,19.09
2018-04-18T20:46:06.622Z,19.05
2018-04-18T20:48:35.139Z,19.01
2018-04-18T20:51:03.617Z,19.00
2018-04-18T20:53:32.134Z,19.00
2018-04-18T20:56:00.632Z,18.96
2018-04-18T20:58:29.093Z,18.93
2018-04-18T21:00:57.601Z,18.90
2018-04-18T21:03:26.047Z,18.83
2018-04-18T21:05:54.535Z,18.87
2018-04-18T21:08:23.048Z,18.84
2018-04-18T21:10:51.505Z,18.80
2018-04-18T21:13:20.024Z,18.77
2018-04-18T21:15:48.491Z,18.73
2018-04-18T21:18:16.965Z,18.73
2018-04-18T21:20:45.537Z,18.69
2018-04-18T21:23:14.053Z,18.68
2018-04-18T21:25:42.521Z,18.70
2018-04-18T21:28:10.986Z,18.53
2018-04-18T21:30:39.485Z,18.64
2018-04-18T21:33:07.954Z,18.60
2018-04-18T21:35:36.465Z,18.63
2018-04-18T21:38:04.928Z,18.64
2018-04-18T21:40:33.414Z,18.62
2018-04-18T21:43:01.953Z,18.61
2018-04-18T21:45:30.430Z,18.59
2018-04-18T21:47:58.918Z,18.59
2018-04-18T21:50:27.421Z,18.57
2018-04-18T21:52:55.882Z,18.59
2018-04-18T21:55:24.388Z,18.51
2018-04-18T21:57:52.845Z,18.47
2018-04-18T22:00:21.408Z,18.44
2018-04-18T22:02:49.881Z,18.36
2018-04-18T22:05:18.408Z,18.34
2018-04-18T22:07:46.900Z,18.24
2018-04-18T22:10:15.436Z,18.23
2018-04-18T22:12:43.916Z,18.05
2018-04-18T22:15:12.425Z,18.09
2018-04-18T22:17:40.921Z,18.07
2018-04-18T22:20:09.385Z,18.08
2018-04-18T22:22:37.892Z,18.02
2018-04-18T22:25:06.355Z,18.02
2018-04-18T22:27:34.848Z,18.03
2018-04-18T22:30:03.370Z,18.01
2018-04-18T22:32:31.835Z,18.05
2018-04-18T22:35:00.321Z,18.06
2018-04-18T22:37:28.832Z,18.09
2018-04-18T22:39:57.317Z,18.10
2018-04-18T22:42:25.766Z,18.12
2018-04-18T22:44:54.272Z,18.15
2018-04-18T22:47:22.751Z,18.21
2018-04-18T22:49:51.253Z,18.15
2018-04-18T22:52:19.762Z,18.12
2018-04-18T22:54:48.245Z,18.13
2018-04-18T22:57:16.780Z,18.11
2018-04-18T22:59:45.239Z,18.13
2018-04-18T23:02:13.771Z,18.10
2018-04-18T23:04:42.244Z,18.02
2018-04-18T23:07:10.744Z,18.00
2018-04-18T23:09:39.252Z,17.99
2018-04-18T23:12:07.705Z,17.97
2018-04-18T23:14:36.216Z,17.85
2018-04-18T23:17:04.694Z,17.91
2018-04-18T23:19:33.185Z,17.92
2018-04-18T23:22:01.677Z,17.89
2018-04-18T23:24:30.236Z,17.88
2018-04-18T23:26:58.688Z,17.86
2018-04-18T23:29:27.153Z,17.87
2018-04-18T23:31:55.649Z,17.80
2018-04-18T23:34:24.154Z,17.80
2018-04-18T23:36:52.661Z,17.78
2018-04-18T23:39:21.222Z,17.70
2018-04-18T23:41:49.688Z,17.73
2018-04-18T23:44:18.189Z,17.65
2018-04-18T23:46:46.640Z,17.71
2018-04-18T23:49:15.154Z,17.64
2018-04-18T23:51:43.634Z,17.61
2018-04-18T23:54:12.137Z,17.55
2018-04-18T23:56:40.605Z,17.55
2018-04-18T23:59:09.100Z,17.51
